Terminal Aerodrome Forecast
Issued by NWS

Home | Current Version | Previous Version | Text Only | Print | Product List | Glossary On
Versions: 1 2 3 4 5 6 7 8 9 10 11 12 13 14 15 16 17 18 19 20
000
FTUS43 KSGF 271700
TAFBBG
TAF
KBBG 271720Z 2718/2818 VRB04KT P6SM SCT035
     FM280000 VRB03KT P6SM SKC
     FM280900 16008KT P6SM SKC WS020/23035KT
     FM281500 17010G18KT P6SM SKC=

USA.gov is the U.S. government's official web portal to all federal, state and local government web resources and services.